Brilhamar — CUGK3 — position and weather

sailwx.info

Track history (hours):
 
Tides and Currents Weather Stations Pressure Air Temp Water Temp Dewpoint Dewpoint Depression Visibility Wind Speed Wind Dir Waves Ship Positions

Brilhamar

Last reported at 2018-Jan-18 20:56 UTC. Time now 2018-Jan-19 00:04 UTC.
Position N 37°03' W 008°15'.

Length 17 m.

Type: Fishing. MMSI: 263419980.

Date/timePositionNaut miles runAvg speedWind from/ knotsBaromVisibWave heightAir tempDewpointWater temp
2018-Jan-18 20:56N 37°03' W 008°15'2 4.6
2018-Jan-18 20:30N 37°03' W 008°18'1 2.9
2018-Jan-18 20:00N 37°02' W 008°19'0 0.2
2018-Jan-18 19:30N 37°02' W 008°19'2 4.6
2018-Jan-18 19:00N 37°02' W 008°16'3 6.2
2018-Jan-18 18:30N 37°03' W 008°12'3 6.0
2018-Jan-18 18:00N 37°03' W 008°09'  
2018-Jan-08 22:13N 37°04' W 008°09'1 2.8
2018-Jan-08 21:56N 37°04' W 008°10'2 3.9
2018-Jan-08 21:21N 37°03' W 008°13'2 5.5
2018-Jan-08 21:00N 37°03' W 008°16'  
Track history (hours):
 
Tides and Currents Weather Stations Pressure Air Temp Water Temp Dewpoint Dewpoint Depression Visibility Wind Speed Wind Dir Waves Ship Positions

Brilhamar

Last reported at 2018-Jan-18 20:56 UTC. Time now 2018-Jan-19 00:04 UTC.
Position N 37°03' W 008°15'.

Length 17 m.

Type: Fishing. MMSI: 263419980.

Date/timePositionNaut miles runAvg speedWind from/ knotsBaromVisibWave heightAir tempDewpointWater temp
2018-Jan-18 20:56N 37°03' W 008°15'2 4.6
2018-Jan-18 20:30N 37°03' W 008°18'1 2.9
2018-Jan-18 20:00N 37°02' W 008°19'0 0.2
2018-Jan-18 19:30N 37°02' W 008°19'2 4.6
2018-Jan-18 19:00N 37°02' W 008°16'3 6.2
2018-Jan-18 18:30N 37°03' W 008°12'3 6.0
2018-Jan-18 18:00N 37°03' W 008°09'  
2018-Jan-08 22:13N 37°04' W 008°09'1 2.8
2018-Jan-08 21:56N 37°04' W 008°10'2 3.9
2018-Jan-08 21:21N 37°03' W 008°13'2 5.5
2018-Jan-08 21:00N 37°03' W 008°16'  

Dump ship's entire track history